sensor_id;sensor_type;location;lat;lon;timestamp;P1;durP1;ratioP1;P2;durP2;ratioP2
65535;SDS011;52145;49.342;9.116;2022-11-03T00:01:31;11.27;;;4.10;;
65535;SDS011;52145;49.342;9.116;2022-11-03T00:03:57;11.05;;;4.10;;
65535;SDS011;52145;49.342;9.116;2022-11-03T00:06:23;11.77;;;4.15;;
65535;SDS011;52145;49.342;9.116;2022-11-03T00:08:49;9.27;;;4.97;;
65535;SDS011;52145;49.342;9.116;2022-11-03T00:11:14;10.20;;;4.13;;
65535;SDS011;52145;49.342;9.116;2022-11-03T00:13:41;6.90;;;3.58;;
65535;SDS011;52145;49.342;9.116;2022-11-03T00:16:08;14.38;;;4.63;;
65535;SDS011;52145;49.342;9.116;2022-11-03T00:18:35;9.70;;;3.90;;
65535;SDS011;52145;49.342;9.116;2022-11-03T00:21:02;9.80;;;3.67;;
65535;SDS011;52145;49.342;9.116;2022-11-03T00:23:31;10.85;;;3.90;;
65535;SDS011;52145;49.342;9.116;2022-11-03T00:26:17;10.40;;;4.88;;
65535;SDS011;52145;49.342;9.116;2022-11-03T00:28:54;7.07;;;3.67;;
65535;SDS011;52145;49.342;9.116;2022-11-03T00:31:22;9.27;;;3.65;;
65535;SDS011;52145;49.342;9.116;2022-11-03T00:33:49;9.02;;;3.80;;
65535;SDS011;52145;49.342;9.116;2022-11-03T00:36:17;9.93;;;3.83;;
65535;SDS011;52145;49.342;9.116;2022-11-03T00:38:47;9.40;;;3.90;;
65535;SDS011;52145;49.342;9.116;2022-11-03T00:41:13;8.73;;;3.05;;
65535;SDS011;52145;49.342;9.116;2022-11-03T00:43:39;8.65;;;4.78;;
65535;SDS011;52145;49.342;9.116;2022-11-03T00:46:05;11.60;;;4.20;;
65535;SDS011;52145;49.342;9.116;2022-11-03T00:48:32;10.30;;;3.83;;
65535;SDS011;52145;49.342;9.116;2022-11-03T00:53:39;11.95;;;4.15;;
65535;SDS011;52145;49.342;9.116;2022-11-03T00:56:12;9.45;;;5.13;;
65535;SDS011;52145;49.342;9.116;2022-11-03T00:58:45;9.02;;;3.97;;
65535;SDS011;52145;49.342;9.116;2022-11-03T01:01:12;10.95;;;4.18;;
65535;SDS011;52145;49.342;9.116;2022-11-03T01:03:39;13.65;;;3.70;;
65535;SDS011;52145;49.342;9.116;2022-11-03T01:06:07;8.85;;;3.78;;
65535;SDS011;52145;49.342;9.116;2022-11-03T01:08:53;9.00;;;4.00;;
65535;SDS011;52145;49.342;9.116;2022-11-03T01:11:21;14.98;;;4.43;;
65535;SDS011;52145;49.342;9.116;2022-11-03T01:14:07;9.43;;;4.03;;
65535;SDS011;52145;49.342;9.116;2022-11-03T01:16:39;12.35;;;4.30;;
65535;SDS011;52145;49.342;9.116;2022-11-03T01:19:06;11.27;;;3.58;;
65535;SDS011;52145;49.342;9.116;2022-11-03T01:21:32;12.15;;;4.25;;
65535;SDS011;52145;49.342;9.116;2022-11-03T01:23:59;9.20;;;4.82;;
65535;SDS011;52145;49.342;9.116;2022-11-03T01:26:26;10.80;;;3.45;;
65535;SDS011;52145;49.342;9.116;2022-11-03T01:28:52;9.20;;;3.15;;
65535;SDS011;52145;49.342;9.116;2022-11-03T01:31:18;7.90;;;3.65;;
65535;SDS011;52145;49.342;9.116;2022-11-03T01:33:46;6.32;;;3.60;;
65535;SDS011;52145;49.342;9.116;2022-11-03T01:36:16;9.50;;;3.25;;
65535;SDS011;52145;49.342;9.116;2022-11-03T01:38:42;10.18;;;3.22;;
65535;SDS011;52145;49.342;9.116;2022-11-03T01:41:10;10.18;;;3.90;;
65535;SDS011;52145;49.342;9.116;2022-11-03T01:43:39;12.00;;;3.80;;
65535;SDS011;52145;49.342;9.116;2022-11-03T01:46:19;10.52;;;3.72;;
65535;SDS011;52145;49.342;9.116;2022-11-03T01:48:57;9.68;;;3.17;;
65535;SDS011;52145;49.342;9.116;2022-11-03T01:51:28;6.70;;;3.20;;
65535;SDS011;52145;49.342;9.116;2022-11-03T01:53:57;9.63;;;3.40;;
65535;SDS011;52145;49.342;9.116;2022-11-03T01:56:24;9.07;;;3.10;;
65535;SDS011;52145;49.342;9.116;2022-11-03T01:58:53;9.43;;;3.53;;
65535;SDS011;52145;49.342;9.116;2022-11-03T02:01:20;13.00;;;3.67;;
65535;SDS011;52145;49.342;9.116;2022-11-03T02:03:48;13.07;;;3.83;;
65535;SDS011;52145;49.342;9.116;2022-11-03T02:06:19;10.65;;;3.42;;
65535;SDS011;52145;49.342;9.116;2022-11-03T02:08:51;8.35;;;3.38;;
65535;SDS011;52145;49.342;9.116;2022-11-03T02:11:22;8.00;;;3.40;;
65535;SDS011;52145;49.342;9.116;2022-11-03T02:14:11;12.90;;;3.50;;
65535;SDS011;52145;49.342;9.116;2022-11-03T02:16:37;8.75;;;3.33;;
65535;SDS011;52145;49.342;9.116;2022-11-03T02:19:07;9.05;;;4.22;;
65535;SDS011;52145;49.342;9.116;2022-11-03T02:27:15;9.52;;;3.65;;
65535;SDS011;52145;49.342;9.116;2022-11-03T02:29:41;9.20;;;3.10;;
65535;SDS011;52145;49.342;9.116;2022-11-03T02:32:09;6.40;;;3.33;;
65535;SDS011;52145;49.342;9.116;2022-11-03T02:34:48;11.05;;;3.45;;
65535;SDS011;52145;49.342;9.116;2022-11-03T02:37:24;9.95;;;3.17;;
65535;SDS011;52145;49.342;9.116;2022-11-03T02:40:02;9.20;;;2.97;;
65535;SDS011;52145;49.342;9.116;2022-11-03T02:42:31;11.27;;;3.28;;
65535;SDS011;52145;49.342;9.116;2022-11-03T02:45:00;8.77;;;3.00;;
65535;SDS011;52145;49.342;9.116;2022-11-03T02:47:28;6.22;;;2.67;;
65535;SDS011;52145;49.342;9.116;2022-11-03T02:49:55;6.22;;;2.83;;
65535;SDS011;52145;49.342;9.116;2022-11-03T02:52:38;9.25;;;2.90;;
65535;SDS011;52145;49.342;9.116;2022-11-03T02:55:10;6.90;;;2.97;;
65535;SDS011;52145;49.342;9.116;2022-11-03T02:57:38;9.63;;;3.40;;
65535;SDS011;52145;49.342;9.116;2022-11-03T03:00:13;11.73;;;2.97;;
65535;SDS011;52145;49.342;9.116;2022-11-03T03:05:16;10.48;;;3.35;;
65535;SDS011;52145;49.342;9.116;2022-11-03T03:07:45;6.70;;;3.08;;
65535;SDS011;52145;49.342;9.116;2022-11-03T03:10:22;9.05;;;2.78;;
65535;SDS011;52145;49.342;9.116;2022-11-03T03:12:53;14.07;;;3.47;;
65535;SDS011;52145;49.342;9.116;2022-11-03T03:18:29;9.55;;;2.97;;
65535;SDS011;52145;49.342;9.116;2022-11-03T03:21:11;8.45;;;2.90;;
65535;SDS011;52145;49.342;9.116;2022-11-03T03:23:48;6.95;;;2.90;;
65535;SDS011;52145;49.342;9.116;2022-11-03T03:26:23;7.70;;;2.85;;
65535;SDS011;52145;49.342;9.116;2022-11-03T03:28:58;6.75;;;3.55;;
65535;SDS011;52145;49.342;9.116;2022-11-03T03:31:30;6.68;;;4.32;;
65535;SDS011;52145;49.342;9.116;2022-11-03T03:33:59;5.97;;;2.65;;
65535;SDS011;52145;49.342;9.116;2022-11-03T03:36:26;7.72;;;2.90;;
65535;SDS011;52145;49.342;9.116;2022-11-03T03:39:01;7.45;;;3.13;;
65535;SDS011;52145;49.342;9.116;2022-11-03T03:41:30;7.45;;;3.20;;
65535;SDS011;52145;49.342;9.116;2022-11-03T03:43:58;6.45;;;2.83;;
65535;SDS011;52145;49.342;9.116;2022-11-03T03:46:36;8.98;;;3.90;;
65535;SDS011;52145;49.342;9.116;2022-11-03T03:49:07;9.32;;;4.70;;
65535;SDS011;52145;49.342;9.116;2022-11-03T03:51:33;12.13;;;4.47;;
65535;SDS011;52145;49.342;9.116;2022-11-03T03:54:00;8.10;;;4.25;;
65535;SDS011;52145;49.342;9.116;2022-11-03T03:56:31;8.20;;;3.90;;
65535;SDS011;52145;49.342;9.116;2022-11-03T03:59:10;9.15;;;3.95;;
65535;SDS011;52145;49.342;9.116;2022-11-03T04:01:35;6.78;;;4.13;;
65535;SDS011;52145;49.342;9.116;2022-11-03T04:04:02;8.70;;;4.38;;
65535;SDS011;52145;49.342;9.116;2022-11-03T04:06:28;11.35;;;4.53;;
65535;SDS011;52145;49.342;9.116;2022-11-03T04:08:53;8.18;;;4.43;;
65535;SDS011;52145;49.342;9.116;2022-11-03T04:11:19;8.85;;;4.82;;
65535;SDS011;52145;49.342;9.116;2022-11-03T04:14:03;12.25;;;5.55;;
65535;SDS011;52145;49.342;9.116;2022-11-03T04:16:47;11.80;;;4.93;;
65535;SDS011;52145;49.342;9.116;2022-11-03T04:19:31;8.05;;;4.20;;
65535;SDS011;52145;49.342;9.116;2022-11-03T04:22:15;12.20;;;4.90;;
65535;SDS011;52145;49.342;9.116;2022-11-03T04:24:41;9.00;;;4.30;;
65535;SDS011;52145;49.342;9.116;2022-11-03T04:29:53;16.95;;;5.93;;
65535;SDS011;52145;49.342;9.116;2022-11-03T04:32:21;13.80;;;5.05;;
65535;SDS011;52145;49.342;9.116;2022-11-03T04:34:47;24.40;;;4.93;;
65535;SDS011;52145;49.342;9.116;2022-11-03T04:37:13;12.43;;;5.32;;
65535;SDS011;52145;49.342;9.116;2022-11-03T04:39:39;10.60;;;4.63;;
65535;SDS011;52145;49.342;9.116;2022-11-03T04:42:19;10.88;;;4.97;;
65535;SDS011;52145;49.342;9.116;2022-11-03T04:44:46;20.02;;;5.05;;
65535;SDS011;52145;49.342;9.116;2022-11-03T04:47:13;13.45;;;5.32;;
65535;SDS011;52145;49.342;9.116;2022-11-03T04:49:41;14.95;;;4.65;;
65535;SDS011;52145;49.342;9.116;2022-11-03T04:52:09;9.30;;;4.05;;
65535;SDS011;52145;49.342;9.116;2022-11-03T04:54:41;10.02;;;3.63;;
65535;SDS011;52145;49.342;9.116;2022-11-03T04:57:08;10.43;;;4.00;;
65535;SDS011;52145;49.342;9.116;2022-11-03T04:59:36;8.77;;;3.97;;
65535;SDS011;52145;49.342;9.116;2022-11-03T05:02:02;6.97;;;3.75;;
65535;SDS011;52145;49.342;9.116;2022-11-03T05:04:33;10.07;;;4.28;;
65535;SDS011;52145;49.342;9.116;2022-11-03T05:06:58;7.65;;;4.03;;
65535;SDS011;52145;49.342;9.116;2022-11-03T05:09:28;14.02;;;4.80;;
65535;SDS011;52145;49.342;9.116;2022-11-03T05:11:55;13.73;;;4.50;;
65535;SDS011;52145;49.342;9.116;2022-11-03T05:14:21;11.88;;;5.03;;
65535;SDS011;52145;49.342;9.116;2022-11-03T05:16:50;10.05;;;4.68;;
65535;SDS011;52145;49.342;9.116;2022-11-03T05:19:21;14.95;;;5.75;;
65535;SDS011;52145;49.342;9.116;2022-11-03T05:21:54;11.95;;;4.60;;
65535;SDS011;52145;49.342;9.116;2022-11-03T05:24:22;19.00;;;5.32;;
65535;SDS011;52145;49.342;9.116;2022-11-03T05:26:51;16.17;;;6.47;;
65535;SDS011;52145;49.342;9.116;2022-11-03T05:29:20;19.60;;;6.00;;
65535;SDS011;52145;49.342;9.116;2022-11-03T05:31:49;26.17;;;6.15;;
65535;SDS011;52145;49.342;9.116;2022-11-03T05:34:36;14.30;;;6.47;;
65535;SDS011;52145;49.342;9.116;2022-11-03T05:37:11;13.52;;;5.30;;
65535;SDS011;52145;49.342;9.116;2022-11-03T05:39:56;10.68;;;5.18;;
65535;SDS011;52145;49.342;9.116;2022-11-03T05:42:31;9.55;;;3.75;;
65535;SDS011;52145;49.342;9.116;2022-11-03T05:45:03;6.65;;;3.00;;
65535;SDS011;52145;49.342;9.116;2022-11-03T05:47:39;7.47;;;3.60;;
65535;SDS011;52145;49.342;9.116;2022-11-03T05:50:19;8.25;;;2.95;;
65535;SDS011;52145;49.342;9.116;2022-11-03T05:52:45;8.57;;;3.15;;
65535;SDS011;52145;49.342;9.116;2022-11-03T05:55:20;6.85;;;2.67;;
65535;SDS011;52145;49.342;9.116;2022-11-03T05:57:52;7.25;;;3.10;;
65535;SDS011;52145;49.342;9.116;2022-11-03T06:00:24;8.10;;;3.08;;
65535;SDS011;52145;49.342;9.116;2022-11-03T06:02:52;7.75;;;3.53;;
65535;SDS011;52145;49.342;9.116;2022-11-03T06:05:20;10.68;;;4.30;;
65535;SDS011;52145;49.342;9.116;2022-11-03T07:40:47;26.52;;;13.10;;
65535;SDS011;52145;49.342;9.116;2022-11-03T07:43:29;27.08;;;12.38;;
65535;SDS011;52145;49.342;9.116;2022-11-03T07:45:58;26.17;;;12.27;;
65535;SDS011;52145;49.342;9.116;2022-11-03T07:50:54;20.20;;;9.02;;
65535;SDS011;52145;49.342;9.116;2022-11-03T07:53:33;20.08;;;8.82;;
65535;SDS011;52145;49.342;9.116;2022-11-03T07:56:12;17.48;;;8.55;;
65535;SDS011;52145;49.342;9.116;2022-11-03T07:58:41;22.02;;;8.45;;
65535;SDS011;52145;49.342;9.116;2022-11-03T08:03:49;14.98;;;7.70;;
65535;SDS011;52145;49.342;9.116;2022-11-03T08:06:16;15.85;;;7.78;;
65535;SDS011;52145;49.342;9.116;2022-11-03T08:08:41;16.10;;;8.00;;
65535;SDS011;52145;49.342;9.116;2022-11-03T08:11:07;14.10;;;6.60;;
65535;SDS011;52145;49.342;9.116;2022-11-03T08:13:33;16.77;;;8.30;;
65535;SDS011;52145;49.342;9.116;2022-11-03T08:15:58;14.45;;;7.78;;
65535;SDS011;52145;49.342;9.116;2022-11-03T08:18:24;17.55;;;7.80;;
65535;SDS011;52145;49.342;9.116;2022-11-03T08:20:49;18.85;;;9.25;;
65535;SDS011;52145;49.342;9.116;2022-11-03T08:23:15;17.15;;;10.48;;
65535;SDS011;52145;49.342;9.116;2022-11-03T08:25:41;18.52;;;9.57;;
65535;SDS011;52145;49.342;9.116;2022-11-03T08:28:07;20.35;;;11.38;;
65535;SDS011;52145;49.342;9.116;2022-11-03T08:30:33;23.55;;;11.75;;
65535;SDS011;52145;49.342;9.116;2022-11-03T08:32:59;20.67;;;11.90;;
65535;SDS011;52145;49.342;9.116;2022-11-03T08:35:25;15.57;;;9.88;;
65535;SDS011;52145;49.342;9.116;2022-11-03T08:37:50;23.40;;;10.45;;
65535;SDS011;52145;49.342;9.116;2022-11-03T08:40:16;23.45;;;10.57;;
65535;SDS011;52145;49.342;9.116;2022-11-03T08:42:42;22.38;;;10.02;;
65535;SDS011;52145;49.342;9.116;2022-11-03T08:45:08;20.25;;;9.98;;
65535;SDS011;52145;49.342;9.116;2022-11-03T08:47:35;22.25;;;10.48;;
65535;SDS011;52145;49.342;9.116;2022-11-03T08:50:00;20.73;;;9.85;;
65535;SDS011;52145;49.342;9.116;2022-11-03T08:52:26;18.63;;;9.73;;
65535;SDS011;52145;49.342;9.116;2022-11-03T08:54:51;14.55;;;8.68;;
65535;SDS011;52145;49.342;9.116;2022-11-03T08:57:17;15.35;;;9.00;;
65535;SDS011;52145;49.342;9.116;2022-11-03T08:59:42;16.52;;;7.75;;
65535;SDS011;52145;49.342;9.116;2022-11-03T09:02:08;17.70;;;7.53;;
65535;SDS011;52145;49.342;9.116;2022-11-03T09:04:33;17.88;;;7.63;;
65535;SDS011;52145;49.342;9.116;2022-11-03T09:06:59;16.40;;;7.57;;
65535;SDS011;52145;49.342;9.116;2022-11-03T09:09:24;13.95;;;7.35;;
65535;SDS011;52145;49.342;9.116;2022-11-03T09:11:50;14.10;;;6.72;;
65535;SDS011;52145;49.342;9.116;2022-11-03T09:14:15;14.43;;;6.95;;
65535;SDS011;52145;49.342;9.116;2022-11-03T09:16:41;13.90;;;7.35;;
65535;SDS011;52145;49.342;9.116;2022-11-03T09:19:07;16.50;;;7.93;;
65535;SDS011;52145;49.342;9.116;2022-11-03T09:21:32;16.23;;;8.68;;
65535;SDS011;52145;49.342;9.116;2022-11-03T09:23:58;12.20;;;7.65;;
65535;SDS011;52145;49.342;9.116;2022-11-03T09:26:24;15.05;;;6.85;;
65535;SDS011;52145;49.342;9.116;2022-11-03T09:28:50;16.70;;;7.20;;
65535;SDS011;52145;49.342;9.116;2022-11-03T09:31:16;14.82;;;6.95;;
65535;SDS011;52145;49.342;9.116;2022-11-03T09:33:42;12.32;;;6.10;;
65535;SDS011;52145;49.342;9.116;2022-11-03T09:36:07;16.63;;;6.90;;
65535;SDS011;52145;49.342;9.116;2022-11-03T09:38:33;14.00;;;6.07;;
65535;SDS011;52145;49.342;9.116;2022-11-03T09:40:59;12.77;;;6.55;;
65535;SDS011;52145;49.342;9.116;2022-11-03T09:43:25;14.02;;;6.25;;
65535;SDS011;52145;49.342;9.116;2022-11-03T09:45:50;11.50;;;6.38;;
65535;SDS011;52145;49.342;9.116;2022-11-03T09:48:17;14.52;;;6.30;;
65535;SDS011;52145;49.342;9.116;2022-11-03T09:50:43;12.30;;;6.07;;
65535;SDS011;52145;49.342;9.116;2022-11-03T09:53:09;10.63;;;5.78;;
65535;SDS011;52145;49.342;9.116;2022-11-03T09:55:36;12.73;;;5.68;;
65535;SDS011;52145;49.342;9.116;2022-11-03T09:58:08;16.10;;;6.35;;
65535;SDS011;52145;49.342;9.116;2022-11-03T10:00:36;12.85;;;6.03;;
65535;SDS011;52145;49.342;9.116;2022-11-03T10:03:02;15.35;;;6.50;;
65535;SDS011;52145;49.342;9.116;2022-11-03T10:05:28;14.32;;;6.45;;
65535;SDS011;52145;49.342;9.116;2022-11-03T10:08:01;11.98;;;5.85;;
65535;SDS011;52145;49.342;9.116;2022-11-03T10:10:30;12.65;;;6.18;;
65535;SDS011;52145;49.342;9.116;2022-11-03T10:12:57;13.52;;;6.13;;
65535;SDS011;52145;49.342;9.116;2022-11-03T10:15:24;14.73;;;6.85;;
65535;SDS011;52145;49.342;9.116;2022-11-03T10:17:51;12.20;;;6.32;;
65535;SDS011;52145;49.342;9.116;2022-11-03T10:20:18;17.27;;;6.25;;
65535;SDS011;52145;49.342;9.116;2022-11-03T10:22:45;15.05;;;5.32;;
65535;SDS011;52145;49.342;9.116;2022-11-03T10:33:37;15.23;;;6.55;;
65535;SDS011;52145;49.342;9.116;2022-11-03T10:38:40;14.88;;;6.18;;
65535;SDS011;52145;49.342;9.116;2022-11-03T10:41:17;15.68;;;6.10;;
65535;SDS011;52145;49.342;9.116;2022-11-03T10:43:44;10.80;;;5.97;;
65535;SDS011;52145;49.342;9.116;2022-11-03T10:46:54;17.60;;;6.10;;
65535;SDS011;52145;49.342;9.116;2022-11-03T10:49:23;11.55;;;5.80;;
65535;SDS011;52145;49.342;9.116;2022-11-03T10:51:50;11.68;;;5.07;;
65535;SDS011;52145;49.342;9.116;2022-11-03T10:54:18;11.20;;;4.78;;
65535;SDS011;52145;49.342;9.116;2022-11-03T10:56:46;12.65;;;4.30;;
65535;SDS011;52145;49.342;9.116;2022-11-03T10:59:21;11.93;;;5.05;;
65535;SDS011;52145;49.342;9.116;2022-11-03T11:01:56;7.90;;;4.13;;
65535;SDS011;52145;49.342;9.116;2022-11-03T11:04:22;10.88;;;4.43;;
65535;SDS011;52145;49.342;9.116;2022-11-03T11:06:48;10.05;;;4.32;;
65535;SDS011;52145;49.342;9.116;2022-11-03T11:09:24;9.02;;;4.13;;
65535;SDS011;52145;49.342;9.116;2022-11-03T11:14:42;8.45;;;3.90;;
65535;SDS011;52145;49.342;9.116;2022-11-03T11:22:42;8.80;;;3.85;;
65535;SDS011;52145;49.342;9.116;2022-11-03T11:25:08;10.50;;;4.97;;
65535;SDS011;52145;49.342;9.116;2022-11-03T11:41:19;13.65;;;5.35;;
65535;SDS011;52145;49.342;9.116;2022-11-03T11:43:45;11.27;;;4.22;;
65535;SDS011;52145;49.342;9.116;2022-11-03T11:51:32;13.00;;;4.55;;
65535;SDS011;52145;49.342;9.116;2022-11-03T11:53:59;10.07;;;4.78;;
65535;SDS011;52145;49.342;9.116;2022-11-03T11:56:30;13.95;;;4.82;;
65535;SDS011;52145;49.342;9.116;2022-11-03T11:58:56;12.55;;;5.25;;
65535;SDS011;52145;49.342;9.116;2022-11-03T12:01:28;12.07;;;5.25;;
65535;SDS011;52145;49.342;9.116;2022-11-03T12:03:59;10.02;;;6.13;;
65535;SDS011;52145;49.342;9.116;2022-11-03T12:06:46;13.82;;;6.15;;
65535;SDS011;52145;49.342;9.116;2022-11-03T12:14:19;19.63;;;10.20;;
65535;SDS011;52145;49.342;9.116;2022-11-03T12:19:43;12.05;;;5.75;;
65535;SDS011;52145;49.342;9.116;2022-11-03T12:25:02;14.57;;;6.43;;
65535;SDS011;52145;49.342;9.116;2022-11-03T12:30:19;9.43;;;5.10;;
65535;SDS011;52145;49.342;9.116;2022-11-03T12:32:44;23.23;;;11.88;;
65535;SDS011;52145;49.342;9.116;2022-11-03T12:35:10;9.85;;;5.40;;
65535;SDS011;52145;49.342;9.116;2022-11-03T12:37:37;10.02;;;4.40;;
65535;SDS011;52145;49.342;9.116;2022-11-03T12:40:04;12.63;;;4.65;;
65535;SDS011;52145;49.342;9.116;2022-11-03T12:42:30;9.73;;;4.25;;
65535;SDS011;52145;49.342;9.116;2022-11-03T12:44:56;8.38;;;4.60;;
65535;SDS011;52145;49.342;9.116;2022-11-03T12:47:21;10.38;;;4.25;;
65535;SDS011;52145;49.342;9.116;2022-11-03T12:49:47;11.73;;;5.45;;
65535;SDS011;52145;49.342;9.116;2022-11-03T12:52:13;7.53;;;4.10;;
65535;SDS011;52145;49.342;9.116;2022-11-03T12:54:38;13.00;;;5.32;;
65535;SDS011;52145;49.342;9.116;2022-11-03T12:57:06;11.00;;;4.78;;
65535;SDS011;52145;49.342;9.116;2022-11-03T12:59:31;8.82;;;4.80;;
65535;SDS011;52145;49.342;9.116;2022-11-03T13:01:57;8.77;;;4.90;;
65535;SDS011;52145;49.342;9.116;2022-11-03T13:04:22;12.93;;;5.55;;
65535;SDS011;52145;49.342;9.116;2022-11-03T13:06:48;11.00;;;4.93;;
65535;SDS011;52145;49.342;9.116;2022-11-03T13:09:13;17.73;;;6.05;;
65535;SDS011;52145;49.342;9.116;2022-11-03T13:11:39;13.63;;;5.78;;
65535;SDS011;52145;49.342;9.116;2022-11-03T13:14:23;17.05;;;6.05;;
65535;SDS011;52145;49.342;9.116;2022-11-03T13:16:50;11.65;;;6.22;;
65535;SDS011;52145;49.342;9.116;2022-11-03T13:19:16;13.85;;;5.90;;
65535;SDS011;52145;49.342;9.116;2022-11-03T13:21:41;13.50;;;5.72;;
65535;SDS011;52145;49.342;9.116;2022-11-03T13:24:07;12.52;;;6.95;;
65535;SDS011;52145;49.342;9.116;2022-11-03T13:26:32;12.38;;;4.85;;
65535;SDS011;52145;49.342;9.116;2022-11-03T13:28:58;14.50;;;5.97;;
65535;SDS011;52145;49.342;9.116;2022-11-03T13:31:23;13.27;;;6.65;;
65535;SDS011;52145;49.342;9.116;2022-11-03T13:33:49;13.02;;;6.32;;
65535;SDS011;52145;49.342;9.116;2022-11-03T13:36:16;13.38;;;6.80;;
65535;SDS011;52145;49.342;9.116;2022-11-03T13:38:41;19.98;;;6.35;;
65535;SDS011;52145;49.342;9.116;2022-11-03T13:41:07;13.25;;;6.38;;
65535;SDS011;52145;49.342;9.116;2022-11-03T13:43:32;16.08;;;7.05;;
65535;SDS011;52145;49.342;9.116;2022-11-03T13:45:58;11.43;;;5.97;;
65535;SDS011;52145;49.342;9.116;2022-11-03T13:48:26;12.40;;;6.35;;
65535;SDS011;52145;49.342;9.116;2022-11-03T13:50:52;14.38;;;6.72;;
65535;SDS011;52145;49.342;9.116;2022-11-03T13:53:17;13.20;;;6.45;;
65535;SDS011;52145;49.342;9.116;2022-11-03T13:55:43;12.77;;;6.22;;
65535;SDS011;52145;49.342;9.116;2022-11-03T13:58:09;13.80;;;6.60;;
65535;SDS011;52145;49.342;9.116;2022-11-03T14:00:35;13.05;;;6.30;;
65535;SDS011;52145;49.342;9.116;2022-11-03T14:03:01;13.80;;;6.00;;
65535;SDS011;52145;49.342;9.116;2022-11-03T14:05:26;14.00;;;6.25;;
65535;SDS011;52145;49.342;9.116;2022-11-03T14:07:52;11.50;;;5.38;;
65535;SDS011;52145;49.342;9.116;2022-11-03T14:10:17;12.18;;;6.05;;
65535;SDS011;52145;49.342;9.116;2022-11-03T14:12:43;18.08;;;9.38;;
65535;SDS011;52145;49.342;9.116;2022-11-03T14:15:09;16.05;;;9.15;;
65535;SDS011;52145;49.342;9.116;2022-11-03T14:17:36;18.08;;;10.23;;
65535;SDS011;52145;49.342;9.116;2022-11-03T14:20:02;18.98;;;10.48;;
65535;SDS011;52145;49.342;9.116;2022-11-03T14:22:28;27.60;;;8.88;;
65535;SDS011;52145;49.342;9.116;2022-11-03T14:24:54;21.30;;;9.07;;
65535;SDS011;52145;49.342;9.116;2022-11-03T14:27:20;18.00;;;7.05;;
65535;SDS011;52145;49.342;9.116;2022-11-03T14:29:46;44.33;;;26.77;;
65535;SDS011;52145;49.342;9.116;2022-11-03T14:32:13;36.50;;;21.77;;
65535;SDS011;52145;49.342;9.116;2022-11-03T14:34:39;36.75;;;22.00;;
65535;SDS011;52145;49.342;9.116;2022-11-03T14:37:05;50.42;;;31.27;;
65535;SDS011;52145;49.342;9.116;2022-11-03T14:39:32;32.47;;;19.10;;
65535;SDS011;52145;49.342;9.116;2022-11-03T14:41:58;19.75;;;10.15;;
65535;SDS011;52145;49.342;9.116;2022-11-03T14:46:56;25.83;;;12.27;;
65535;SDS011;52145;49.342;9.116;2022-11-03T14:49:22;21.42;;;11.45;;
65535;SDS011;52145;49.342;9.116;2022-11-03T14:51:48;20.95;;;10.40;;
65535;SDS011;52145;49.342;9.116;2022-11-03T14:54:13;19.50;;;10.75;;
65535;SDS011;52145;49.342;9.116;2022-11-03T14:56:39;22.88;;;11.93;;
65535;SDS011;52145;49.342;9.116;2022-11-03T14:59:04;20.27;;;9.70;;
65535;SDS011;52145;49.342;9.116;2022-11-03T15:01:30;20.23;;;10.23;;
65535;SDS011;52145;49.342;9.116;2022-11-03T15:03:55;16.63;;;8.77;;
65535;SDS011;52145;49.342;9.116;2022-11-03T15:06:21;19.60;;;8.95;;
65535;SDS011;52145;49.342;9.116;2022-11-03T15:08:46;16.92;;;8.70;;
65535;SDS011;52145;49.342;9.116;2022-11-03T15:11:12;15.40;;;7.93;;
65535;SDS011;52145;49.342;9.116;2022-11-03T15:13:37;17.05;;;8.63;;
65535;SDS011;52145;49.342;9.116;2022-11-03T15:16:03;14.68;;;7.50;;
65535;SDS011;52145;49.342;9.116;2022-11-03T15:18:30;13.90;;;7.25;;
65535;SDS011;52145;49.342;9.116;2022-11-03T15:20:55;18.05;;;8.40;;
65535;SDS011;52145;49.342;9.116;2022-11-03T15:23:21;19.45;;;7.60;;
65535;SDS011;52145;49.342;9.116;2022-11-03T15:25:46;14.82;;;7.43;;
65535;SDS011;52145;49.342;9.116;2022-11-03T15:28:13;18.00;;;7.88;;
65535;SDS011;52145;49.342;9.116;2022-11-03T15:30:39;14.55;;;6.38;;
65535;SDS011;52145;49.342;9.116;2022-11-03T15:33:05;17.80;;;7.00;;
65535;SDS011;52145;49.342;9.116;2022-11-03T15:35:30;17.63;;;7.57;;
65535;SDS011;52145;49.342;9.116;2022-11-03T15:37:56;15.48;;;8.63;;
65535;SDS011;52145;49.342;9.116;2022-11-03T15:40:24;18.02;;;8.30;;
65535;SDS011;52145;49.342;9.116;2022-11-03T15:42:50;15.75;;;8.32;;
65535;SDS011;52145;49.342;9.116;2022-11-03T15:45:16;18.40;;;9.23;;
65535;SDS011;52145;49.342;9.116;2022-11-03T15:47:42;22.05;;;8.35;;
65535;SDS011;52145;49.342;9.116;2022-11-03T15:50:08;13.98;;;7.68;;
65535;SDS011;52145;49.342;9.116;2022-11-03T15:52:35;18.75;;;9.75;;
65535;SDS011;52145;49.342;9.116;2022-11-03T15:55:01;19.35;;;10.35;;
65535;SDS011;52145;49.342;9.116;2022-11-03T15:57:27;24.33;;;10.98;;
65535;SDS011;52145;49.342;9.116;2022-11-03T15:59:52;31.98;;;14.70;;
